Terminal Aerodrome Forecast
Issued by NWS

Home | Current Version | Previous Version | Text Only | Print | Product List | Glossary On
Versions: 1 2 3 4 5 6 7 8 9 10 11 12 13
000
FTAK31 PAJN 291100
TAFAJN
TAF
PAJN 291120Z 2912/3012 VRB03KT 6SM -RA BR SCT002 BKN020 OVC035
      TEMPO 2912/2916 3SM -RA BR BKN006 OVC040
     FM291600 12004KT P6SM -RA SCT025 OVC050
     FM292100 12008KT 5SM -RA BR BKN020 OVC050
     FM300600 10004KT P6SM -SHRA SCT020 OVC040=

USA.gov is the U.S. government's official web portal to all federal, state and local government web resources and services.